sensor_id;sensor_type;location;lat;lon;timestamp;pressure;altitude;pressure_sealevel;temperature;humidity
6668;BME280;3370;47.712;9.082;2022-10-31T00:01:18;97578.75;;;10.85;100.00
6668;BME280;3370;47.712;9.082;2022-10-31T00:03:44;97579.25;;;10.95;100.00
6668;BME280;3370;47.712;9.082;2022-10-31T00:06:10;97573.38;;;10.91;100.00
6668;BME280;3370;47.712;9.082;2022-10-31T00:08:36;97571.94;;;10.84;100.00
6668;BME280;3370;47.712;9.082;2022-10-31T00:11:02;97578.53;;;10.91;100.00
6668;BME280;3370;47.712;9.082;2022-10-31T00:13:28;97583.53;;;10.94;100.00
6668;BME280;3370;47.712;9.082;2022-10-31T00:15:54;97575.06;;;10.92;100.00
6668;BME280;3370;47.712;9.082;2022-10-31T00:18:20;97575.72;;;10.98;100.00
6668;BME280;3370;47.712;9.082;2022-10-31T00:20:46;97571.97;;;11.06;100.00
6668;BME280;3370;47.712;9.082;2022-10-31T00:23:12;97568.47;;;11.07;100.00
6668;BME280;3370;47.712;9.082;2022-10-31T00:25:39;97577.81;;;11.10;100.00
6668;BME280;3370;47.712;9.082;2022-10-31T00:28:07;97574.94;;;11.18;100.00
6668;BME280;3370;47.712;9.082;2022-10-31T00:30:34;97573.44;;;11.12;100.00
6668;BME280;3370;47.712;9.082;2022-10-31T00:33:03;97564.75;;;11.15;100.00
6668;BME280;3370;47.712;9.082;2022-10-31T00:35:29;97566.50;;;11.14;100.00
6668;BME280;3370;47.712;9.082;2022-10-31T00:37:54;97564.81;;;11.13;100.00
6668;BME280;3370;47.712;9.082;2022-10-31T00:40:20;97566.25;;;11.20;100.00
6668;BME280;3370;47.712;9.082;2022-10-31T00:42:46;97563.94;;;11.14;100.00
6668;BME280;3370;47.712;9.082;2022-10-31T00:45:12;97563.81;;;11.17;100.00
6668;BME280;3370;47.712;9.082;2022-10-31T00:47:38;97568.06;;;11.18;100.00
6668;BME280;3370;47.712;9.082;2022-10-31T00:50:07;97560.38;;;11.17;100.00
6668;BME280;3370;47.712;9.082;2022-10-31T00:52:33;97567.16;;;11.19;100.00
6668;BME280;3370;47.712;9.082;2022-10-31T00:54:59;97570.50;;;11.21;100.00
6668;BME280;3370;47.712;9.082;2022-10-31T00:57:25;97573.97;;;11.20;100.00
6668;BME280;3370;47.712;9.082;2022-10-31T00:59:51;97569.06;;;11.14;100.00
6668;BME280;3370;47.712;9.082;2022-10-31T01:02:17;97569.06;;;11.14;100.00
6668;BME280;3370;47.712;9.082;2022-10-31T01:04:43;97566.19;;;11.22;100.00
6668;BME280;3370;47.712;9.082;2022-10-31T01:07:10;97568.81;;;11.20;100.00
6668;BME280;3370;47.712;9.082;2022-10-31T01:09:37;97567.94;;;11.21;100.00
6668;BME280;3370;47.712;9.082;2022-10-31T01:12:03;97566.03;;;11.26;100.00
6668;BME280;3370;47.712;9.082;2022-10-31T01:14:29;97570.63;;;11.18;100.00
6668;BME280;3370;47.712;9.082;2022-10-31T01:16:55;97562.38;;;11.10;100.00
6668;BME280;3370;47.712;9.082;2022-10-31T01:19:21;97564.03;;;11.11;100.00
6668;BME280;3370;47.712;9.082;2022-10-31T01:21:46;97562.38;;;11.10;100.00
6668;BME280;3370;47.712;9.082;2022-10-31T01:24:12;97560.94;;;11.03;100.00
6668;BME280;3370;47.712;9.082;2022-10-31T01:26:38;97567.13;;;10.99;100.00
6668;BME280;3370;47.712;9.082;2022-10-31T01:29:07;97563.56;;;11.01;100.00
6668;BME280;3370;47.712;9.082;2022-10-31T01:31:38;97558.84;;;11.12;100.00
6668;BME280;3370;47.712;9.082;2022-10-31T01:34:04;97568.66;;;11.03;100.00
6668;BME280;3370;47.712;9.082;2022-10-31T01:36:37;97559.16;;;11.05;100.00
6668;BME280;3370;47.712;9.082;2022-10-31T01:39:12;97570.47;;;11.01;100.00
6668;BME280;3370;47.712;9.082;2022-10-31T01:41:43;97568.47;;;11.07;100.00
6668;BME280;3370;47.712;9.082;2022-10-31T01:49:24;97554.09;;;11.02;100.00
6668;BME280;3370;47.712;9.082;2022-10-31T01:52:00;97560.94;;;11.03;100.00
6668;BME280;3370;47.712;9.082;2022-10-31T01:54:34;97548.97;;;11.02;100.00
6668;BME280;3370;47.712;9.082;2022-10-31T01:57:03;97547.88;;;11.07;100.00
6668;BME280;3370;47.712;9.082;2022-10-31T01:59:32;97545.50;;;11.03;100.00
6668;BME280;3370;47.712;9.082;2022-10-31T02:02:00;97546.22;;;11.06;100.00
6668;BME280;3370;47.712;9.082;2022-10-31T02:04:27;97547.16;;;11.04;100.00
6668;BME280;3370;47.712;9.082;2022-10-31T02:09:54;97536.16;;;11.00;100.00
6668;BME280;3370;47.712;9.082;2022-10-31T02:12:21;97540.34;;;11.03;100.00
6668;BME280;3370;47.712;9.082;2022-10-31T02:14:47;97538.56;;;11.05;100.00
6668;BME280;3370;47.712;9.082;2022-10-31T02:17:13;97536.88;;;11.04;100.00
6668;BME280;3370;47.712;9.082;2022-10-31T02:22:40;97538.56;;;11.05;100.00
6668;BME280;3370;47.712;9.082;2022-10-31T02:37:14;97536.50;;;11.13;100.00
6668;BME280;3370;47.712;9.082;2022-10-31T02:40:21;97526.34;;;11.10;100.00
6668;BME280;3370;47.712;9.082;2022-10-31T02:43:43;97531.59;;;11.07;100.00
6668;BME280;3370;47.712;9.082;2022-10-31T02:48:32;97536.50;;;11.13;100.00
6668;BME280;3370;47.712;9.082;2022-10-31T02:51:03;97531.25;;;11.16;100.00
6668;BME280;3370;47.712;9.082;2022-10-31T02:53:34;97535.63;;;11.14;100.00
6668;BME280;3370;47.712;9.082;2022-10-31T02:56:19;97528.88;;;11.11;100.00
6668;BME280;3370;47.712;9.082;2022-10-31T02:58:52;97531.59;;;11.07;100.00
6668;BME280;3370;47.712;9.082;2022-10-31T03:10:27;97531.28;;;11.15;100.00
6668;BME280;3370;47.712;9.082;2022-10-31T03:16:13;97522.75;;;11.14;100.00
6668;BME280;3370;47.712;9.082;2022-10-31T03:19:04;97528.72;;;11.15;100.00
6668;BME280;3370;47.712;9.082;2022-10-31T03:21:58;97527.22;;;11.09;100.00
6668;BME280;3370;47.712;9.082;2022-10-31T03:24:38;97527.41;;;11.26;100.00
6668;BME280;3370;47.712;9.082;2022-10-31T03:27:07;97533.38;;;11.27;100.00
6668;BME280;3370;47.712;9.082;2022-10-31T03:29:37;97533.16;;;11.11;100.00
6668;BME280;3370;47.712;9.082;2022-10-31T03:32:18;97518.75;;;11.07;100.00
6668;BME280;3370;47.712;9.082;2022-10-31T03:34:47;97517.84;;;11.08;100.00
6668;BME280;3370;47.712;9.082;2022-10-31T03:37:18;97520.94;;;11.16;100.00
6668;BME280;3370;47.712;9.082;2022-10-31T03:39:47;97519.16;;;11.18;100.00
6668;BME280;3370;47.712;9.082;2022-10-31T03:42:27;97520.00;;;11.19;100.00
6668;BME280;3370;47.712;9.082;2022-10-31T03:45:20;97510.59;;;11.18;100.00
6668;BME280;3370;47.712;9.082;2022-10-31T03:47:48;97515.84;;;11.15;100.00
6668;BME280;3370;47.712;9.082;2022-10-31T03:50:15;97519.00;;;11.01;100.00
6668;BME280;3370;47.712;9.082;2022-10-31T03:53:01;97508.03;;;10.96;100.00
6668;BME280;3370;47.712;9.082;2022-10-31T03:56:02;97514.72;;;11.00;100.00
6668;BME280;3370;47.712;9.082;2022-10-31T03:58:36;97515.28;;;11.08;100.00
6668;BME280;3370;47.712;9.082;2022-10-31T04:01:07;97512.88;;;11.03;100.00
6668;BME280;3370;47.712;9.082;2022-10-31T04:03:37;97520.53;;;11.05;100.00
6668;BME280;3370;47.712;9.082;2022-10-31T04:06:09;97511.13;;;11.04;100.00
6668;BME280;3370;47.712;9.082;2022-10-31T04:08:46;97514.50;;;11.06;100.00
6668;BME280;3370;47.712;9.082;2022-10-31T04:11:17;97503.50;;;11.02;100.00
6668;BME280;3370;47.712;9.082;2022-10-31T04:13:45;97505.75;;;11.10;100.00
6668;BME280;3370;47.712;9.082;2022-10-31T04:16:12;97510.91;;;11.10;100.00
6668;BME280;3370;47.712;9.082;2022-10-31T04:18:40;97503.25;;;11.08;100.00
6668;BME280;3370;47.712;9.082;2022-10-31T04:21:07;97501.56;;;11.07;100.00
6668;BME280;3370;47.712;9.082;2022-10-31T04:23:35;97495.69;;;11.04;100.00
6668;BME280;3370;47.712;9.082;2022-10-31T04:26:01;97494.97;;;11.00;100.00
6668;BME280;3370;47.712;9.082;2022-10-31T04:28:27;97499.06;;;11.06;100.00
6668;BME280;3370;47.712;9.082;2022-10-31T04:30:53;97502.59;;;11.03;100.00
6668;BME280;3370;47.712;9.082;2022-10-31T04:33:19;97500.72;;;11.07;100.00
6668;BME280;3370;47.712;9.082;2022-10-31T04:35:46;97488.88;;;11.03;100.00
6668;BME280;3370;47.712;9.082;2022-10-31T04:38:11;97493.13;;;11.04;100.00
6668;BME280;3370;47.712;9.082;2022-10-31T04:40:37;97494.03;;;11.03;100.00
6668;BME280;3370;47.712;9.082;2022-10-31T04:43:03;97492.13;;;11.08;100.00
6668;BME280;3370;47.712;9.082;2022-10-31T04:45:29;97497.28;;;11.08;100.00
6668;BME280;3370;47.712;9.082;2022-10-31T04:47:55;97491.56;;;11.00;100.00
6668;BME280;3370;47.712;9.082;2022-10-31T04:50:20;97494.47;;;10.92;100.00
6668;BME280;3370;47.712;9.082;2022-10-31T04:52:46;97490.81;;;10.98;100.00
6668;BME280;3370;47.712;9.082;2022-10-31T04:55:13;97493.38;;;10.98;100.00
6668;BME280;3370;47.712;9.082;2022-10-31T04:57:44;97487.56;;;10.92;100.00
6668;BME280;3370;47.712;9.082;2022-10-31T05:00:14;97489.38;;;10.90;100.00
6668;BME280;3370;47.712;9.082;2022-10-31T05:05:18;97479.06;;;10.90;100.00
6668;BME280;3370;47.712;9.082;2022-10-31T05:07:47;97484.47;;;10.84;100.00
6668;BME280;3370;47.712;9.082;2022-10-31T05:10:19;97484.59;;;10.81;100.00
6668;BME280;3370;47.712;9.082;2022-10-31T05:12:52;97485.19;;;10.88;100.00
6668;BME280;3370;47.712;9.082;2022-10-31T05:15:20;97477.38;;;10.89;100.00
6668;BME280;3370;47.712;9.082;2022-10-31T05:17:46;97487.03;;;10.84;100.00
6668;BME280;3370;47.712;9.082;2022-10-31T05:20:14;97484.22;;;10.90;100.00
6668;BME280;3370;47.712;9.082;2022-10-31T05:22:49;97482.69;;;10.86;100.00
6668;BME280;3370;47.712;9.082;2022-10-31T05:25:15;97481.00;;;10.85;100.00
6668;BME280;3370;47.712;9.082;2022-10-31T05:27:43;97486.69;;;10.71;100.00
6668;BME280;3370;47.712;9.082;2022-10-31T05:30:12;97477.91;;;10.77;100.00
6668;BME280;3370;47.712;9.082;2022-10-31T05:32:43;97478.88;;;10.73;100.00
6668;BME280;3370;47.712;9.082;2022-10-31T05:35:13;97473.94;;;10.68;100.00
6668;BME280;3370;47.712;9.082;2022-10-31T05:37:40;97466.28;;;10.67;100.00
6668;BME280;3370;47.712;9.082;2022-10-31T05:40:10;97461.91;;;10.69;100.00
6668;BME280;3370;47.712;9.082;2022-10-31T05:42:39;97466.75;;;10.77;100.00
6668;BME280;3370;47.712;9.082;2022-10-31T05:45:07;97463.28;;;10.78;100.00
6668;BME280;3370;47.712;9.082;2022-10-31T05:47:33;97455.88;;;10.70;100.00
6668;BME280;3370;47.712;9.082;2022-10-31T05:49:59;97447.38;;;10.68;100.00
6668;BME280;3370;47.712;9.082;2022-10-31T05:52:25;97448.09;;;10.71;100.00
6668;BME280;3370;47.712;9.082;2022-10-31T05:54:50;97443.84;;;10.70;100.00
6668;BME280;3370;47.712;9.082;2022-10-31T05:57:16;97449.88;;;10.69;100.00
6668;BME280;3370;47.712;9.082;2022-10-31T05:59:42;97447.38;;;10.68;100.00
6668;BME280;3370;47.712;9.082;2022-10-31T06:02:08;97442.72;;;10.78;100.00
6668;BME280;3370;47.712;9.082;2022-10-31T06:04:34;97441.22;;;10.72;100.00
6668;BME280;3370;47.712;9.082;2022-10-31T06:06:59;97446.47;;;10.69;100.00
6668;BME280;3370;47.712;9.082;2022-10-31T06:09:25;97440.50;;;10.68;100.00
6668;BME280;3370;47.712;9.082;2022-10-31T06:11:51;97445.34;;;10.76;100.00
6668;BME280;3370;47.712;9.082;2022-10-31T06:14:17;97445.03;;;10.84;100.00
6668;BME280;3370;47.712;9.082;2022-10-31T06:16:43;97446.00;;;10.81;100.00
6668;BME280;3370;47.712;9.082;2022-10-31T06:19:08;97451.19;;;10.80;100.00
6668;BME280;3370;47.712;9.082;2022-10-31T06:21:34;97444.31;;;10.80;100.00
6668;BME280;3370;47.712;9.082;2022-10-31T06:24:03;97446.88;;;10.80;100.00
6668;BME280;3370;47.712;9.082;2022-10-31T06:26:29;97452.22;;;10.76;100.00
6668;BME280;3370;47.712;9.082;2022-10-31T06:28:55;97450.16;;;10.84;100.00
6668;BME280;3370;47.712;9.082;2022-10-31T06:31:21;97453.97;;;10.75;100.00
6668;BME280;3370;47.712;9.082;2022-10-31T06:33:47;97456.81;;;10.67;100.00
6668;BME280;3370;47.712;9.082;2022-10-31T06:36:13;97449.16;;;10.66;100.00
6668;BME280;3370;47.712;9.082;2022-10-31T06:38:38;97452.16;;;10.77;100.00
6668;BME280;3370;47.712;9.082;2022-10-31T06:41:05;97452.28;;;10.74;100.00
6668;BME280;3370;47.712;9.082;2022-10-31T06:43:32;97451.16;;;10.81;100.00
6668;BME280;3370;47.712;9.082;2022-10-31T06:46:01;97450.59;;;10.73;100.00
6668;BME280;3370;47.712;9.082;2022-10-31T06:48:27;97453.72;;;10.81;100.00
6668;BME280;3370;47.712;9.082;2022-10-31T06:50:57;97458.03;;;10.81;100.00
6668;BME280;3370;47.712;9.082;2022-10-31T06:53:23;97458.88;;;10.81;100.00
6668;BME280;3370;47.712;9.082;2022-10-31T06:55:49;97461.50;;;10.80;100.00
6668;BME280;3370;47.712;9.082;2022-10-31T06:58:14;97460.16;;;10.69;100.00
6668;BME280;3370;47.712;9.082;2022-10-31T07:00:40;97459.13;;;10.75;100.00
6668;BME280;3370;47.712;9.082;2022-10-31T07:03:10;97469.50;;;10.72;100.00
6668;BME280;3370;47.712;9.082;2022-10-31T07:05:37;97470.53;;;10.68;100.00
6668;BME280;3370;47.712;9.082;2022-10-31T07:08:07;97457.91;;;10.62;100.00
6668;BME280;3370;47.712;9.082;2022-10-31T07:10:36;97462.16;;;10.63;100.00
6668;BME280;3370;47.712;9.082;2022-10-31T07:13:05;97464.94;;;10.57;100.00
6668;BME280;3370;47.712;9.082;2022-10-31T07:15:37;97461.38;;;10.61;100.00
6668;BME280;3370;47.712;9.082;2022-10-31T07:18:05;97464.59;;;10.66;100.00
6668;BME280;3370;47.712;9.082;2022-10-31T07:20:31;97455.75;;;10.73;100.00
6668;BME280;3370;47.712;9.082;2022-10-31T07:22:58;97457.16;;;10.80;100.00
6668;BME280;3370;47.712;9.082;2022-10-31T07:25:24;97456.94;;;10.86;100.00
6668;BME280;3370;47.712;9.082;2022-10-31T07:27:50;97453.72;;;10.81;100.00
6668;BME280;3370;47.712;9.082;2022-10-31T07:30:17;97465.66;;;10.82;100.00
6668;BME280;3370;47.712;9.082;2022-10-31T07:32:49;97464.00;;;10.81;100.00
6668;BME280;3370;47.712;9.082;2022-10-31T07:35:24;97474.66;;;10.72;100.00
6668;BME280;3370;47.712;9.082;2022-10-31T07:37:50;97475.44;;;10.74;100.00
6668;BME280;3370;47.712;9.082;2022-10-31T07:40:18;97472.66;;;10.57;100.00
6668;BME280;3370;47.712;9.082;2022-10-31T07:42:49;97469.25;;;10.56;100.00
6668;BME280;3370;47.712;9.082;2022-10-31T07:45:18;97483.91;;;10.54;100.00
6668;BME280;3370;47.712;9.082;2022-10-31T07:47:51;97475.22;;;10.57;100.00
6668;BME280;3370;47.712;9.082;2022-10-31T07:50:23;97475.75;;;10.66;100.00
6668;BME280;3370;47.712;9.082;2022-10-31T07:53:11;97472.84;;;10.74;100.00
6668;BME280;3370;47.712;9.082;2022-10-31T07:55:38;97466.53;;;10.83;100.00
6668;BME280;3370;47.712;9.082;2022-10-31T07:58:15;97475.69;;;10.90;100.00
6668;BME280;3370;47.712;9.082;2022-10-31T08:00:44;97469.38;;;10.97;100.00
6668;BME280;3370;47.712;9.082;2022-10-31T08:03:17;97470.69;;;11.07;100.00
6668;BME280;3370;47.712;9.082;2022-10-31T08:05:43;97469.84;;;11.07;100.00
6668;BME280;3370;47.712;9.082;2022-10-31T08:08:13;97468.75;;;11.12;100.00
6668;BME280;3370;47.712;9.082;2022-10-31T08:10:40;97462.78;;;11.12;100.00
6668;BME280;3370;47.712;9.082;2022-10-31T08:13:13;97467.66;;;11.18;100.00
6668;BME280;3370;47.712;9.082;2022-10-31T08:15:40;97463.94;;;11.25;100.00
6668;BME280;3370;47.712;9.082;2022-10-31T08:18:14;97473.34;;;11.06;100.00
6668;BME280;3370;47.712;9.082;2022-10-31T08:20:41;97466.25;;;11.11;100.00
6668;BME280;3370;47.712;9.082;2022-10-31T08:23:09;97473.81;;;10.93;100.00
6668;BME280;3370;47.712;9.082;2022-10-31T08:25:36;97472.72;;;10.99;100.00
6668;BME280;3370;47.712;9.082;2022-10-31T08:28:03;97469.06;;;11.05;100.00
6668;BME280;3370;47.712;9.082;2022-10-31T08:30:32;97467.41;;;10.82;100.00
6668;BME280;3370;47.712;9.082;2022-10-31T08:33:05;97459.16;;;10.73;100.00
6668;BME280;3370;47.712;9.082;2022-10-31T08:35:32;97463.75;;;10.87;100.00
6668;BME280;3370;47.712;9.082;2022-10-31T08:37:59;97454.41;;;11.07;100.00
6668;BME280;3370;47.712;9.082;2022-10-31T08:40:27;97469.84;;;11.07;100.00
6668;BME280;3370;47.712;9.082;2022-10-31T08:43:14;97462.66;;;11.15;100.00
6668;BME280;3370;47.712;9.082;2022-10-31T08:45:40;97463.03;;;11.06;100.00
6668;BME280;3370;47.712;9.082;2022-10-31T08:48:12;97463.66;;;11.11;100.00
6668;BME280;3370;47.712;9.082;2022-10-31T08:50:38;97467.22;;;11.08;100.00
6668;BME280;3370;47.712;9.082;2022-10-31T08:53:08;97462.91;;;11.09;100.00
6668;BME280;3370;47.712;9.082;2022-10-31T08:55:36;97460.88;;;11.17;100.00
6668;BME280;3370;47.712;9.082;2022-10-31T08:58:05;97456.22;;;11.25;100.00
6668;BME280;3370;47.712;9.082;2022-10-31T09:00:33;97451.22;;;11.43;100.00
6668;BME280;3370;47.712;9.082;2022-10-31T09:03:08;97454.88;;;11.37;100.00
6668;BME280;3370;47.712;9.082;2022-10-31T09:05:35;97451.59;;;11.34;100.00
6668;BME280;3370;47.712;9.082;2022-10-31T09:08:04;97448.06;;;11.16;100.00
6668;BME280;3370;47.712;9.082;2022-10-31T09:10:32;97451.44;;;11.16;100.00
6668;BME280;3370;47.712;9.082;2022-10-31T09:13:00;97443.50;;;11.00;100.00
6668;BME280;3370;47.712;9.082;2022-10-31T09:15:28;97448.91;;;10.94;100.00
6668;BME280;3370;47.712;9.082;2022-10-31T09:17:54;97442.59;;;11.23;100.00
6668;BME280;3370;47.712;9.082;2022-10-31T09:20:21;97435.13;;;11.17;100.00
6668;BME280;3370;47.712;9.082;2022-10-31T09:22:47;97433.75;;;11.29;100.00
6668;BME280;3370;47.712;9.082;2022-10-31T09:25:14;97437.81;;;11.35;100.00
6668;BME280;3370;47.712;9.082;2022-10-31T09:27:40;97434.84;;;11.44;100.00
6668;BME280;3370;47.712;9.082;2022-10-31T09:30:06;97426.19;;;11.46;100.00
6668;BME280;3370;47.712;9.082;2022-10-31T09:32:32;97428.28;;;11.57;100.00
6668;BME280;3370;47.712;9.082;2022-10-31T09:34:58;97435.25;;;11.55;100.00
6668;BME280;3370;47.712;9.082;2022-10-31T09:37:24;97432.47;;;11.60;100.00
6668;BME280;3370;47.712;9.082;2022-10-31T09:39:49;97435.75;;;11.63;100.00
6668;BME280;3370;47.712;9.082;2022-10-31T09:47:56;97444.91;;;11.29;100.00
6668;BME280;3370;47.712;9.082;2022-10-31T09:53:27;97432.22;;;11.45;100.00
6668;BME280;3370;47.712;9.082;2022-10-31T09:55:57;97428.16;;;11.60;100.00
6668;BME280;3370;47.712;9.082;2022-10-31T09:58:26;97441.56;;;11.48;100.00
6668;BME280;3370;47.712;9.082;2022-10-31T10:00:58;97443.22;;;11.49;100.00
6668;BME280;3370;47.712;9.082;2022-10-31T10:03:35;97442.91;;;11.36;100.00
6668;BME280;3370;47.712;9.082;2022-10-31T10:06:18;97443.03;;;11.12;100.00
6668;BME280;3370;47.712;9.082;2022-10-31T10:08:46;97441.97;;;10.96;100.00
6668;BME280;3370;47.712;9.082;2022-10-31T10:11:44;97435.75;;;11.02;100.00
6668;BME280;3370;47.712;9.082;2022-10-31T10:14:44;97440.13;;;11.20;100.00
6668;BME280;3370;47.712;9.082;2022-10-31T10:17:42;97424.94;;;11.14;100.00
6668;BME280;3370;47.712;9.082;2022-10-31T10:20:25;97421.59;;;11.12;100.00
6668;BME280;3370;47.712;9.082;2022-10-31T10:26:25;97410.84;;;11.43;100.00
6668;BME280;3370;47.712;9.082;2022-10-31T10:29:29;97421.22;;;11.62;100.00
6668;BME280;3370;47.712;9.082;2022-10-31T10:32:01;97418.75;;;11.59;100.00
6668;BME280;3370;47.712;9.082;2022-10-31T10:34:38;97411.69;;;11.44;100.00
6668;BME280;3370;47.712;9.082;2022-10-31T10:37:28;97408.59;;;11.36;100.00
6668;BME280;3370;47.712;9.082;2022-10-31T10:40:17;97402.03;;;11.28;100.00
6668;BME280;3370;47.712;9.082;2022-10-31T10:46:25;97403.19;;;11.42;100.00
6668;BME280;3370;47.712;9.082;2022-10-31T10:49:33;97392.81;;;11.43;100.00
6668;BME280;3370;47.712;9.082;2022-10-31T10:58:06;97395.28;;;11.46;100.00
6668;BME280;3370;47.712;9.082;2022-10-31T11:00:43;97398.94;;;11.20;100.00
6668;BME280;3370;47.712;9.082;2022-10-31T11:03:12;97393.94;;;11.17;100.00
6668;BME280;3370;47.712;9.082;2022-10-31T11:05:55;97389.56;;;11.19;100.00
6668;BME280;3370;47.712;9.082;2022-10-31T11:08:32;97387.69;;;11.23;100.00
6668;BME280;3370;47.712;9.082;2022-10-31T11:11:19;97379.84;;;11.26;100.00
6668;BME280;3370;47.712;9.082;2022-10-31T11:13:52;97380.00;;;11.42;100.00
6668;BME280;3370;47.712;9.082;2022-10-31T11:16:34;97390.53;;;11.37;100.00
6668;BME280;3370;47.712;9.082;2022-10-31T11:19:27;97383.44;;;11.42;100.00
6668;BME280;3370;47.712;9.082;2022-10-31T11:21:53;97379.00;;;11.46;100.00
6668;BME280;3370;47.712;9.082;2022-10-31T11:24:24;97370.63;;;11.41;100.00
6668;BME280;3370;47.712;9.082;2022-10-31T11:27:13;97368.47;;;11.50;100.00
6668;BME280;3370;47.712;9.082;2022-10-31T11:29:39;97372.91;;;11.67;100.00
6668;BME280;3370;47.712;9.082;2022-10-31T11:32:04;97359.53;;;11.59;100.00
6668;BME280;3370;47.712;9.082;2022-10-31T11:34:43;97371.34;;;11.63;100.00
6668;BME280;3370;47.712;9.082;2022-10-31T11:37:23;97369.34;;;11.70;100.00
6668;BME280;3370;47.712;9.082;2022-10-31T11:40:04;97360.69;;;11.71;100.00
6668;BME280;3370;47.712;9.082;2022-10-31T11:42:40;97365.50;;;11.60;100.00
6668;BME280;3370;47.712;9.082;2022-10-31T11:47:54;97356.06;;;11.79;100.00
6668;BME280;3370;47.712;9.082;2022-10-31T11:50:36;97343.81;;;11.84;100.00
6668;BME280;3370;47.712;9.082;2022-10-31T11:53:24;97352.44;;;11.83;100.00
6668;BME280;3370;47.712;9.082;2022-10-31T11:56:12;97349.16;;;11.80;100.00
6668;BME280;3370;47.712;9.082;2022-10-31T11:58:38;97351.41;;;11.87;100.00
6668;BME280;3370;47.712;9.082;2022-10-31T12:01:05;97350.25;;;11.95;100.00
6668;BME280;3370;47.712;9.082;2022-10-31T12:04:02;97344.19;;;11.96;100.00
6668;BME280;3370;47.712;9.082;2022-10-31T12:06:40;97326.88;;;11.79;100.00
6668;BME280;3370;47.712;9.082;2022-10-31T12:09:24;97320.63;;;11.84;100.00
6668;BME280;3370;47.712;9.082;2022-10-31T12:23:35;97313.38;;;12.12;100.00
6668;BME280;3370;47.712;9.082;2022-10-31T12:26:16;97307.16;;;12.16;100.00
6668;BME280;3370;47.712;9.082;2022-10-31T12:29:18;97313.84;;;12.20;100.00
6668;BME280;3370;47.712;9.082;2022-10-31T12:46:54;97276.38;;;15.34;94.85
6668;BME280;3370;47.712;9.082;2022-10-31T13:02:00;97243.38;;;17.99;73.51
6668;BME280;3370;47.712;9.082;2022-10-31T13:04:44;97247.31;;;16.92;77.67
6668;BME280;3370;47.712;9.082;2022-10-31T13:07:20;97244.09;;;16.36;82.00
6668;BME280;3370;47.712;9.082;2022-10-31T13:12:39;97236.97;;;16.12;83.13
6668;BME280;3370;47.712;9.082;2022-10-31T13:15:21;97229.44;;;15.95;84.18
6668;BME280;3370;47.712;9.082;2022-10-31T13:18:00;97236.69;;;15.61;83.91
6668;BME280;3370;47.712;9.082;2022-10-31T13:20:40;97228.41;;;15.56;85.26
6668;BME280;3370;47.712;9.082;2022-10-31T13:23:32;97223.63;;;15.21;85.47
6668;BME280;3370;47.712;9.082;2022-10-31T13:26:08;97219.63;;;15.44;89.24
6668;BME280;3370;47.712;9.082;2022-10-31T13:28:46;97213.97;;;15.37;87.24
6668;BME280;3370;47.712;9.082;2022-10-31T13:31:13;97211.41;;;15.23;88.49
6668;BME280;3370;47.712;9.082;2022-10-31T13:33:48;97203.09;;;14.74;90.00
6668;BME280;3370;47.712;9.082;2022-10-31T13:36:36;97202.81;;;14.34;93.01
6668;BME280;3370;47.712;9.082;2022-10-31T13:39:34;97197.72;;;14.03;95.48
6668;BME280;3370;47.712;9.082;2022-10-31T13:45:18;97189.91;;;13.88;99.41
6668;BME280;3370;47.712;9.082;2022-10-31T13:50:43;97187.16;;;13.91;99.37
6668;BME280;3370;47.712;9.082;2022-10-31T13:55:50;97172.25;;;13.65;100.00
6668;BME280;3370;47.712;9.082;2022-10-31T13:58:30;97176.19;;;13.56;100.00
6668;BME280;3370;47.712;9.082;2022-10-31T14:01:16;97174.03;;;13.64;100.00
6668;BME280;3370;47.712;9.082;2022-10-31T14:03:47;97178.09;;;13.68;100.00
6668;BME280;3370;47.712;9.082;2022-10-31T14:06:21;97187.75;;;13.80;100.00
6668;BME280;3370;47.712;9.082;2022-10-31T14:08:51;97191.09;;;13.67;100.00
6668;BME280;3370;47.712;9.082;2022-10-31T14:11:27;97190.78;;;13.41;100.00
6668;BME280;3370;47.712;9.082;2022-10-31T14:13:56;97183.53;;;13.32;100.00
6668;BME280;3370;47.712;9.082;2022-10-31T14:16:24;97176.69;;;13.47;100.00
6668;BME280;3370;47.712;9.082;2022-10-31T14:19:13;97171.66;;;13.28;100.00
6668;BME280;3370;47.712;9.082;2022-10-31T14:21:46;97170.06;;;13.25;100.00
6668;BME280;3370;47.712;9.082;2022-10-31T14:24:33;97171.91;;;13.23;100.00
6668;BME280;3370;47.712;9.082;2022-10-31T14:29:44;97167.66;;;13.06;100.00
6668;BME280;3370;47.712;9.082;2022-10-31T14:40:51;97168.19;;;12.79;100.00
6668;BME280;3370;47.712;9.082;2022-10-31T14:52:07;97156.25;;;12.43;100.00
6668;BME280;3370;47.712;9.082;2022-10-31T14:54:39;97157.47;;;12.54;100.00
6668;BME280;3370;47.712;9.082;2022-10-31T14:57:31;97149.84;;;12.35;100.00
6668;BME280;3370;47.712;9.082;2022-10-31T15:00:04;97148.63;;;12.42;100.00
6668;BME280;3370;47.712;9.082;2022-10-31T15:05:27;97131.53;;;12.57;100.00
6668;BME280;3370;47.712;9.082;2022-10-31T15:07:56;97135.13;;;12.37;100.00
6668;BME280;3370;47.712;9.082;2022-10-31T15:10:30;97138.06;;;12.29;100.00
6668;BME280;3370;47.712;9.082;2022-10-31T15:13:19;97134.44;;;12.33;100.00
6668;BME280;3370;47.712;9.082;2022-10-31T15:15:52;97130.78;;;12.55;100.00
6668;BME280;3370;47.712;9.082;2022-10-31T15:18:26;97128.19;;;12.55;100.00
6668;BME280;3370;47.712;9.082;2022-10-31T15:20:54;97135.72;;;12.75;100.00
6668;BME280;3370;47.712;9.082;2022-10-31T15:23:25;97129.81;;;12.73;100.00
6668;BME280;3370;47.712;9.082;2022-10-31T15:26:01;97128.72;;;12.77;100.00
6668;BME280;3370;47.712;9.082;2022-10-31T15:28:29;97121.31;;;12.71;100.00
6668;BME280;3370;47.712;9.082;2022-10-31T15:31:00;97112.97;;;12.66;100.00
6668;BME280;3370;47.712;9.082;2022-10-31T15:33:30;97107.38;;;12.58;100.00
6668;BME280;3370;47.712;9.082;2022-10-31T15:36:01;97108.91;;;12.62;100.00
6668;BME280;3370;47.712;9.082;2022-10-31T15:38:28;97111.88;;;12.54;100.00
6668;BME280;3370;47.712;9.082;2022-10-31T15:41:21;97113.69;;;12.52;100.00
6668;BME280;3370;47.712;9.082;2022-10-31T15:43:49;97111.03;;;12.54;100.00
6668;BME280;3370;47.712;9.082;2022-10-31T15:46:15;97115.78;;;12.61;100.00
6668;BME280;3370;47.712;9.082;2022-10-31T15:48:45;97107.56;;;12.55;100.00
6668;BME280;3370;47.712;9.082;2022-10-31T15:51:13;97106.22;;;12.48;100.00
6668;BME280;3370;47.712;9.082;2022-10-31T15:53:50;97106.72;;;12.54;100.00
6668;BME280;3370;47.712;9.082;2022-10-31T15:56:27;97100.00;;;12.34;100.00